Fayetteville/Pope AFB, North Carolina
Current Conditions -  °F | °C
As of 3:34 PM on Saturday 20 Dec 2014 (Local Time) from KPOB Reporting Station
Overcast Overcast  
Wind Chill: 35°   Ceiling: 3300
Heat Index: 39°   Visibility: 10mi
Dew Point: 36°   Wind: 6mph
Humidity: 87%   Direction: 50°NE
Pressure: 30.24"   Gusts: NA
Location:  35.16°N, 79.01°W
Report Text: KPOB 202034Z AUTO 05005KT 10SM SCT008 OVC033 04/02 A3024 RMK AO2 CIG 008 RWY05
Loading
Personal Weather Stations






























Interactive Weather Map New forecast layout! Learn more

10-Day Weather Forecast

Advertisements
Track Severe Weather on mobile